Golden, North Carolina
Current Conditions -  °F | °C
As of 7:55 PM on Monday 26 Jan 2015 (Local Time) from KFQD Reporting Station
Clear Clear  
Wind Chill: 37°   Ceiling: Unl
Heat Index: 37°   Visibility: 10mi
Dew Point: 26°   Wind: 3mph
Humidity: 64%   Direction: 350°N
Pressure: 29.79"   Gusts: NA
Location:  35.4977°N, 81.7958°W
Report Text: KFQD 270055Z AUTO 35003KT 10SM CLR 03/M03 A2979 RMK AO2 T00281035
Loading
Personal Weather Stations






























Interactive Weather Map New forecast layout! Learn more

10-Day Weather Forecast

Advertisements
Track Severe Weather on mobile